Time;durP1;ratioP1;P1;durP2;ratioP2;P2;SDS_P1;SDS_P2;PMS_P1;PMS_P2;Temp;Humidity;BMP_temperature;BMP_pressure;BME280_temperature;BME280_humidity;BME280_pressure;Samples;Min_cycle;Max_cycle;Signal;HPM_P1;HPM_P2
2022/09/04 00:01:06;;;;;;;15.97;9.70;;;;;;;16.75;100.00;95092.06;5060846;28;20197;-73
2022/09/04 00:03:41;;;;;;;14.40;9.37;;;;;;;16.75;100.00;95101.78;5061868;28;20266;-73
2022/09/04 00:06:14;;;;;;;14.40;9.67;;;;;;;16.79;100.00;95103.69;5061832;28;20201;-73
2022/09/04 00:09:05;;;;;;;12.57;9.30;;;;;;;16.79;100.00;95106.31;5060569;28;20228;-73
2022/09/04 00:11:43;;;;;;;16.70;9.27;;;;;;;16.82;100.00;95105.81;5060410;28;20208;-74
2022/09/04 00:14:16;;;;;;;20.60;10.70;;;;;;;16.82;100.00;95107.66;5061344;28;20208;-73
2022/09/04 00:16:51;;;;;;;16.90;10.90;;;;;;;16.87;100.00;95108.50;5061827;28;20248;-73
2022/09/04 00:19:27;;;;;;;18.97;11.03;;;;;;;16.88;100.00;95110.06;5061687;28;20204;-73
2022/09/04 00:21:58;;;;;;;15.37;10.60;;;;;;;16.86;100.00;95114.78;5060666;28;20238;-73
2022/09/04 00:24:30;;;;;;;14.10;10.57;;;;;;;16.82;100.00;95111.06;5061341;28;20212;-74
2022/09/04 00:27:02;;;;;;;13.10;10.20;;;;;;;16.75;100.00;95110.44;5058923;28;20300;-74
2022/09/04 00:29:39;;;;;;;13.87;10.00;;;;;;;16.71;100.00;95111.97;5061198;28;20201;-73
2022/09/04 00:32:17;;;;;;;13.93;9.60;;;;;;;16.65;100.00;95110.31;5061371;28;20189;-73
2022/09/04 00:35:03;;;;;;;15.60;10.37;;;;;;;16.64;100.00;95115.81;5059834;28;20672;-73
2022/09/04 00:37:36;;;;;;;13.30;9.27;;;;;;;16.66;100.00;95118.97;5057380;28;20213;-73
2022/09/04 00:40:09;;;;;;;13.80;9.43;;;;;;;16.64;100.00;95106.13;5060605;28;20201;-73
2022/09/04 00:43:00;;;;;;;16.57;9.43;;;;;;;16.58;100.00;95108.91;5060696;28;20232;-74
2022/09/04 00:45:45;;;;;;;11.93;8.70;;;;;;;16.62;100.00;95110.03;5059967;28;20205;-73
2022/09/04 00:48:30;;;;;;;12.97;9.00;;;;;;;16.55;100.00;95110.19;5060513;28;20208;-73
2022/09/04 00:51:14;;;;;;;14.47;8.53;;;;;;;16.60;100.00;95105.00;5058553;28;20197;-73
2022/09/04 00:54:01;;;;;;;12.33;9.33;;;;;;;16.63;100.00;95101.09;5061695;28;20204;-73
2022/09/04 00:56:54;;;;;;;14.07;8.97;;;;;;;16.64;100.00;95102.69;5060559;28;20631;-73
2022/09/04 00:59:38;;;;;;;14.67;9.10;;;;;;;16.60;100.00;95091.09;5060647;28;20699;-74
2022/09/04 01:02:12;;;;;;;13.20;8.80;;;;;;;16.51;100.00;95098.56;5058650;28;20602;-74
2022/09/04 01:04:43;;;;;;;18.70;9.00;;;;;;;16.46;100.00;95099.28;5061749;28;20292;-73
2022/09/04 01:07:34;;;;;;;13.63;9.37;;;;;;;16.41;100.00;95098.44;5060561;28;20201;-73
2022/09/04 01:10:29;;;;;;;10.73;8.50;;;;;;;16.41;100.00;95107.09;5059748;28;20205;-71
2022/09/04 01:13:03;;;;;;;14.10;9.70;;;;;;;16.47;100.00;95105.34;5061166;28;20201;-72
2022/09/04 01:15:37;;;;;;;11.13;8.87;;;;;;;16.39;100.00;95121.50;5061391;28;20241;-72
2022/09/04 01:18:11;;;;;;;13.87;9.03;;;;;;;16.42;100.00;95119.16;5060042;28;20201;-73
2022/09/04 01:21:18;;;;;;;12.50;9.47;;;;;;;16.39;100.00;95114.41;5060891;28;20205;-73
2022/09/04 01:24:02;;;;;;;16.40;9.83;;;;;;;16.40;100.00;95115.22;5061743;28;20270;-72
2022/09/04 01:26:40;;;;;;;15.40;9.47;;;;;;;16.33;100.00;95109.34;5062140;28;20205;-73
2022/09/04 01:29:18;;;;;;;20.13;9.60;;;;;;;16.34;100.00;95113.56;5060697;28;20310;-74
2022/09/04 01:31:52;;;;;;;13.13;9.33;;;;;;;16.32;100.00;95110.38;5061949;28;20216;-73
2022/09/04 01:34:35;;;;;;;14.40;9.63;;;;;;;16.34;100.00;95098.59;5062032;28;20213;-73
2022/09/04 01:37:14;;;;;;;16.83;9.30;;;;;;;16.25;100.00;95097.44;5063385;28;20288;-74
2022/09/04 01:39:46;;;;;;;17.83;9.93;;;;;;;16.16;100.00;95092.84;5064242;28;20193;-74
2022/09/04 01:42:20;;;;;;;14.80;9.97;;;;;;;16.21;100.00;95100.78;5063329;28;20233;-74
2022/09/04 01:44:48;;;;;;;21.40;10.33;;;;;;;16.26;100.00;95092.97;5064076;28;20281;-73
2022/09/04 01:47:21;;;;;;;20.47;10.90;;;;;;;16.26;100.00;95098.22;5063620;28;20205;-73
2022/09/04 01:49:57;;;;;;;18.83;10.80;;;;;;;16.24;100.00;95095.06;5063722;28;20271;-73
2022/09/04 01:52:38;;;;;;;18.73;10.93;;;;;;;16.19;100.00;95095.00;5061388;28;20562;-73
2022/09/04 01:55:23;;;;;;;20.70;11.17;;;;;;;16.20;100.00;95091.31;5061713;28;20204;-73
2022/09/04 01:58:02;;;;;;;18.13;11.50;;;;;;;16.11;100.00;95095.38;5064064;28;20282;-74
2022/09/04 02:00:38;;;;;;;20.07;11.23;;;;;;;16.19;100.00;95092.38;5061314;28;20602;-72
2022/09/04 02:03:15;;;;;;;18.50;11.10;;;;;;;16.24;100.00;95089.81;5064052;28;20224;-74
2022/09/04 02:05:55;;;;;;;15.90;10.97;;;;;;;16.16;100.00;95087.63;5063029;28;20632;-73
2022/09/04 02:08:35;;;;;;;18.40;10.87;;;;;;;16.12;100.00;95084.69;5063704;28;20201;-73
2022/09/04 02:11:08;;;;;;;18.03;11.57;;;;;;;16.14;100.00;95089.66;5061087;28;20228;-73
2022/09/04 02:13:44;;;;;;;17.57;11.63;;;;;;;16.13;100.00;95086.25;5065075;28;20327;-74
2022/09/04 02:16:20;;;;;;;17.97;11.03;;;;;;;16.06;100.00;95083.00;5063242;28;20257;-73
2022/09/04 02:18:59;;;;;;;17.30;10.97;;;;;;;16.03;100.00;95080.88;5062572;28;20205;-73
2022/09/04 02:21:31;;;;;;;16.60;10.67;;;;;;;16.03;100.00;95083.50;5063180;28;20672;-73
2022/09/04 02:24:09;;;;;;;20.03;11.30;;;;;;;16.04;100.00;95090.34;5063416;28;20308;-73
2022/09/04 02:26:41;;;;;;;20.47;10.83;;;;;;;16.00;100.00;95073.47;5063241;28;20552;-73
2022/09/04 02:29:19;;;;;;;17.17;10.13;;;;;;;16.03;100.00;95072.22;5062867;28;20208;-73
2022/09/04 02:31:55;;;;;;;15.90;10.20;;;;;;;15.98;100.00;95069.53;5063259;28;20205;-73
2022/09/04 02:34:30;;;;;;;13.47;9.97;;;;;;;15.95;100.00;95070.00;5064383;28;20216;-73
2022/09/04 02:37:08;;;;;;;18.00;9.47;;;;;;;15.95;100.00;95065.56;5061556;28;20208;-73
2022/09/04 02:39:45;;;;;;;15.43;9.20;;;;;;;15.85;100.00;95055.72;5064498;28;20200;-73
2022/09/04 02:42:21;;;;;;;11.67;8.80;;;;;;;15.94;100.00;95078.88;5063146;28;20217;-73
2022/09/04 02:45:01;;;;;;;10.87;8.63;;;;;;;15.90;100.00;95075.97;5062821;28;20212;-73
2022/09/04 02:47:36;;;;;;;12.93;8.57;;;;;;;15.84;100.00;95075.06;5064445;28;21570;-73
2022/09/04 02:50:17;;;;;;;12.23;8.93;;;;;;;15.80;100.00;95081.84;5064175;28;20241;-73
2022/09/04 02:52:58;;;;;;;15.00;8.77;;;;;;;15.79;100.00;95090.75;5063734;28;20216;-73
2022/09/04 02:55:43;;;;;;;12.50;8.37;;;;;;;15.78;100.00;95091.78;5062886;28;20201;-73
2022/09/04 02:58:21;;;;;;;17.20;9.77;;;;;;;15.77;100.00;95089.38;5063347;28;20292;-73
2022/09/04 03:00:57;;;;;;;15.67;9.70;;;;;;;15.77;100.00;95089.38;5064202;28;20277;-72
2022/09/04 03:03:31;;;;;;;16.80;9.90;;;;;;;15.72;100.00;95084.06;5062815;28;20606;-74
2022/09/04 03:06:03;;;;;;;18.40;10.17;;;;;;;15.75;100.00;95096.72;5063723;28;20204;-74
2022/09/04 03:08:34;;;;;;;17.80;11.97;;;;;;;15.77;100.00;95100.69;5061808;28;20249;-73
2022/09/04 03:11:12;;;;;;;19.60;12.13;;;;;;;15.57;100.00;95102.97;5062652;28;21643;-73
2022/09/04 03:13:46;;;;;;;18.30;11.97;;;;;;;15.58;100.00;95103.78;5063121;28;20593;-73
2022/09/04 03:16:21;;;;;;;15.73;11.07;;;;;;;15.54;100.00;95100.81;5062822;28;20298;-73
2022/09/04 03:19:02;;;;;;;15.97;11.23;;;;;;;15.51;100.00;95105.75;5062417;28;20231;-74
2022/09/04 03:21:37;;;;;;;19.63;11.50;;;;;;;15.58;100.00;95099.34;5062562;28;20197;-74
2022/09/04 03:24:10;;;;;;;15.77;11.70;;;;;;;15.63;100.00;95093.38;5062543;28;20232;-73
2022/09/04 03:26:41;;;;;;;26.03;11.97;;;;;;;15.42;100.00;95091.41;5064454;28;20741;-72
2022/09/04 03:29:20;;;;;;;19.70;12.70;;;;;;;15.21;100.00;95087.63;5063724;28;20206;-73
2022/09/04 03:32:02;;;;;;;19.70;11.53;;;;;;;15.30;100.00;95099.31;5063561;28;20292;-73
2022/09/04 03:34:43;;;;;;;17.97;12.43;;;;;;;15.33;100.00;95104.09;5062833;28;20205;-74
2022/09/04 03:37:25;;;;;;;24.37;12.70;;;;;;;15.31;100.00;95109.59;5063727;28;20849;-74
2022/09/04 03:40:05;;;;;;;17.63;11.77;;;;;;;15.16;100.00;95104.06;5064308;28;20209;-74
2022/09/04 03:42:43;;;;;;;17.60;11.13;;;;;;;15.29;100.00;95105.63;5063679;28;20236;-73
2022/09/04 03:45:20;;;;;;;17.23;11.17;;;;;;;15.33;100.00;95104.91;5063892;28;20204;-73
2022/09/04 03:48:02;;;;;;;17.03;11.20;;;;;;;15.30;100.00;95118.47;5062248;28;20295;-74
2022/09/04 03:50:39;;;;;;;21.53;11.60;;;;;;;14.99;100.00;95120.75;5063456;28;20212;-73
2022/09/04 03:53:17;;;;;;;27.93;11.00;;;;;;;14.69;100.00;95131.41;5063126;28;20193;-73
2022/09/04 03:56:05;;;;;;;23.67;12.47;;;;;;;14.61;100.00;95132.59;5063233;28;20837;-74
2022/09/04 03:58:43;;;;;;;29.37;13.90;;;;;;;14.32;100.00;95127.47;5063116;28;20213;-74
2022/09/04 04:01:17;;;;;;;26.47;13.70;;;;;;;14.13;100.00;95132.84;5063223;28;20197;-73
2022/09/04 04:04:00;;;;;;;26.00;13.00;;;;;;;14.17;100.00;95141.00;5063044;28;20232;-73
2022/09/04 04:06:36;;;;;;;25.10;14.63;;;;;;;14.31;100.00;95141.59;5063289;28;20208;-73
2022/09/04 04:09:40;;;;;;;22.87;13.33;;;;;;;14.32;100.00;95157.06;5061802;28;20204;-73
2022/09/04 04:12:38;;;;;;;21.30;12.97;;;;;;;14.27;100.00;95159.53;5028647;28;20212;-74
2022/09/04 04:15:15;;;;;;;24.17;13.20;;;;;;;14.14;100.00;95173.63;5057797;28;20249;-73
2022/09/04 04:18:01;;;;;;;19.97;13.30;;;;;;;14.11;100.00;95161.00;5061547;28;20616;-73
2022/09/04 04:20:40;;;;;;;25.97;12.63;;;;;;;14.21;100.00;95168.28;5062187;28;20756;-73
2022/09/04 04:23:32;;;;;;;26.90;12.73;;;;;;;14.27;100.00;95177.03;5062078;28;20220;-74
2022/09/04 04:26:08;;;;;;;34.80;12.87;;;;;;;14.25;100.00;95185.13;5059314;28;20768;-74
2022/09/04 04:29:07;;;;;;;44.27;14.53;;;;;;;14.21;100.00;95170.91;5061751;28;20216;-74
2022/09/04 04:32:09;;;;;;;27.43;13.87;;;;;;;14.15;100.00;95180.44;5061029;28;20193;-74
2022/09/04 04:34:46;;;;;;;24.50;13.37;;;;;;;14.23;100.00;95187.16;5062404;28;20254;-74
2022/09/04 04:37:30;;;;;;;37.70;13.57;;;;;;;14.31;100.00;95196.50;5060819;28;20205;-74
2022/09/04 04:40:08;;;;;;;20.63;13.37;;;;;;;14.30;100.00;95184.44;5060001;28;20201;-74
2022/09/04 04:42:44;;;;;;;41.90;12.57;;;;;;;14.38;100.00;95179.69;5060319;28;20577;-72
2022/09/04 04:48:41;;;;;;;18.30;12.53;;;;;;;14.56;100.00;95179.56;5060162;28;20222;-74
2022/09/04 04:51:19;;;;;;;19.57;13.20;;;;;;;14.63;100.00;95180.22;5061296;28;20664;-74
2022/09/04 04:53:56;;;;;;;19.50;12.93;;;;;;;14.73;100.00;95182.28;5062337;28;20205;-73
2022/09/04 04:56:30;;;;;;;21.60;13.60;;;;;;;14.82;100.00;95182.72;5062345;28;20213;-73
2022/09/04 04:59:08;;;;;;;21.70;13.17;;;;;;;14.97;100.00;95185.66;5060119;28;20818;-73
2022/09/04 05:01:48;;;;;;;20.97;13.00;;;;;;;15.04;100.00;95196.75;5060935;28;20806;-74
2022/09/04 05:04:24;;;;;;;21.30;13.50;;;;;;;15.16;100.00;95185.25;5061845;28;20323;-73
2022/09/04 05:06:58;;;;;;;23.67;14.23;;;;;;;15.14;100.00;95183.88;5062868;28;20208;-73
2022/09/04 05:09:37;;;;;;;22.00;14.37;;;;;;;15.07;100.00;95183.22;5060794;28;20200;-74
2022/09/04 05:12:15;;;;;;;23.90;13.70;;;;;;;15.14;100.00;95174.22;5064643;28;20277;-74
2022/09/04 05:14:51;;;;;;;23.87;14.37;;;;;;;15.26;100.00;95182.03;5065750;28;20209;-72
2022/09/04 05:17:29;;;;;;;21.67;14.10;;;;;;;15.24;100.00;95170.97;5065672;28;20213;-72
2022/09/04 05:20:18;;;;;;;23.77;14.33;;;;;;;15.24;100.00;95178.81;5061576;28;20729;-73
2022/09/04 05:22:52;;;;;;;22.77;13.13;;;;;;;15.33;100.00;95183.47;5062341;28;20702;-73
2022/09/04 05:25:25;;;;;;;22.57;13.67;;;;;;;15.40;100.00;95187.78;5063645;28;20208;-74
2022/09/04 05:28:03;;;;;;;21.10;13.97;;;;;;;15.50;100.00;95201.88;5064868;28;20635;-73
2022/09/04 05:30:42;;;;;;;25.27;14.00;;;;;;;15.60;100.00;95203.88;5065230;28;20201;-73
2022/09/04 05:33:18;;;;;;;22.60;14.50;;;;;;;15.60;100.00;95196.03;5063959;28;20675;-73
2022/09/04 05:35:50;;;;;;;23.27;15.03;;;;;;;15.61;100.00;95200.25;5065759;28;20209;-73
2022/09/04 05:38:26;;;;;;;24.13;15.43;;;;;;;15.68;100.00;95203.50;5064222;28;20848;-73
2022/09/04 05:41:16;;;;;;;24.03;14.57;;;;;;;15.65;100.00;95210.00;5063023;28;20730;-73
2022/09/04 05:43:59;;;;;;;21.50;14.57;;;;;;;15.65;100.00;95204.78;5065719;28;20224;-73
2022/09/04 05:46:41;;;;;;;24.07;14.67;;;;;;;15.74;100.00;95205.19;5062722;28;20216;-73
2022/09/04 05:49:18;;;;;;;27.03;16.20;;;;;;;15.85;100.00;95201.69;5063880;28;20213;-73
2022/09/04 05:52:09;;;;;;;29.93;16.67;;;;;;;15.57;100.00;95204.34;5064864;28;20205;-72
2022/09/04 05:55:13;;;;;;;32.70;16.90;;;;;;;15.71;100.00;95197.78;5063641;28;20209;-74
2022/09/04 05:57:49;;;;;;;30.03;16.67;;;;;;;15.83;100.00;95190.66;5041203;28;20260;-72
2022/09/04 06:00:18;;;;;;;30.47;17.07;;;;;;;15.97;100.00;95189.31;5061983;28;20208;-73
2022/09/04 06:03:14;;;;;;;26.60;15.97;;;;;;;16.09;100.00;95192.66;5064917;28;20553;-74
2022/09/04 06:06:03;;;;;;;25.53;16.20;;;;;;;16.09;100.00;95170.88;5063659;28;20199;-73
2022/09/04 06:08:46;;;;;;;27.37;15.40;;;;;;;16.20;100.00;95175.25;5063156;28;20262;-73
2022/09/04 06:11:39;;;;;;;28.20;18.27;;;;;;;16.27;100.00;95181.16;5064167;28;20251;-73
2022/09/04 06:14:30;;;;;;;24.57;16.80;;;;;;;16.27;100.00;95181.16;5063355;28;20197;-74
2022/09/04 06:17:11;;;;;;;27.00;17.53;;;;;;;16.25;100.00;95180.56;5063918;28;20236;-73
2022/09/04 06:19:55;;;;;;;31.80;20.07;;;;;;;16.32;100.00;95181.22;5063491;28;20201;-74
2022/09/04 06:22:45;;;;;;;40.57;19.23;;;;;;;16.43;100.00;95170.63;5064187;28;20229;-73
2022/09/04 06:25:25;;;;;;;36.50;21.20;;;;;;;16.50;100.00;95178.34;5063884;28;20210;-74
2022/09/04 06:28:31;;;;;;;36.83;21.30;;;;;;;16.55;100.00;95178.44;5064467;28;20559;-75
2022/09/04 06:31:33;;;;;;;42.37;23.63;;;;;;;16.61;100.00;95177.47;5042276;28;21414;-74
2022/09/04 06:34:09;;;;;;;37.03;22.43;;;;;;;16.73;100.00;95172.09;5062800;28;20225;-78
2022/09/04 06:36:55;;;;;;;34.90;21.87;;;;;;;16.80;100.00;95173.50;5063225;28;20695;-74
2022/09/04 06:39:40;;;;;;;35.60;22.07;;;;;;;16.85;100.00;95183.28;5065187;28;20217;-74
2022/09/04 06:42:31;;;;;;;34.03;21.83;;;;;;;16.80;100.00;95181.38;5064112;28;20634;-73
2022/09/04 06:45:15;;;;;;;32.90;21.50;;;;;;;16.76;100.00;95166.38;5062625;28;20594;-73
2022/09/04 06:48:00;;;;;;;35.73;21.60;;;;;;;16.78;100.00;95167.72;5063188;28;20210;-73
2022/09/04 06:50:34;;;;;;;33.17;21.40;;;;;;;16.88;100.00;95182.81;5063366;28;20201;-73
2022/09/04 06:53:11;;;;;;;40.63;21.53;;;;;;;16.86;100.00;95177.78;5063608;28;20201;-74
2022/09/04 06:55:48;;;;;;;35.27;21.23;;;;;;;16.92;100.00;95187.31;5063359;28;20630;-73
2022/09/04 06:58:29;;;;;;;34.73;21.47;;;;;;;16.97;100.00;95168.19;5062517;28;20200;-74
2022/09/04 07:01:06;;;;;;;36.13;20.73;;;;;;;17.10;100.00;95172.28;5063600;28;20228;-74
2022/09/04 07:03:44;;;;;;;36.07;19.37;;;;;;;17.15;100.00;95177.59;5063777;28;20266;-74
2022/09/04 07:06:16;;;;;;;33.73;21.60;;;;;;;17.23;100.00;95164.06;5063209;28;20288;-74
2022/09/04 07:08:58;;;;;;;32.60;21.10;;;;;;;17.24;100.00;95170.88;5064135;28;20430;-75
2022/09/04 07:11:40;;;;;;;34.23;20.50;;;;;;;17.27;100.00;95165.13;5063446;28;20205;-74
2022/09/04 07:14:48;;;;;;;35.13;20.93;;;;;;;17.35;100.00;95168.09;5061912;28;20209;-74
2022/09/04 07:17:24;;;;;;;35.63;22.93;;;;;;;17.33;100.00;95174.66;5013705;28;20209;-74
2022/09/04 07:20:14;;;;;;;41.63;22.33;;;;;;;17.36;100.00;95180.22;5061913;28;20196;-74
2022/09/04 07:22:56;;;;;;;37.03;22.20;;;;;;;17.33;100.00;95175.47;5062467;28;20205;-73
2022/09/04 07:25:27;;;;;;;31.83;22.00;;;;;;;17.43;100.00;95174.78;5063267;28;20221;-74
2022/09/04 07:28:13;;;;;;;36.17;22.23;;;;;;;17.52;100.00;95175.91;5060213;28;20212;-73
2022/09/04 07:30:45;;;;;;;36.57;21.30;;;;;;;17.56;100.00;95174.41;5061354;28;20194;-74
2022/09/04 07:33:16;;;;;;;36.63;21.73;;;;;;;17.61;100.00;95176.28;5061825;28;20201;-74
2022/09/04 07:35:53;;;;;;;35.50;21.57;;;;;;;17.65;100.00;95175.53;5062395;28;20205;-72
2022/09/04 07:38:33;;;;;;;33.33;20.23;;;;;;;17.74;100.00;95181.94;5063450;28;20304;-75
2022/09/04 07:41:09;;;;;;;34.83;20.90;;;;;;;17.89;100.00;95186.56;5061531;28;20225;-74
2022/09/04 07:43:45;;;;;;;35.97;21.13;;;;;;;17.99;100.00;95197.94;5061351;28;20619;-74
2022/09/04 07:46:21;;;;;;;35.30;21.70;;;;;;;17.97;100.00;95189.53;5061960;28;20841;-75
2022/09/04 07:48:55;;;;;;;38.33;22.73;;;;;;;17.99;100.00;95211.09;5063002;28;20201;-76
2022/09/04 07:51:30;;;;;;;34.53;21.90;;;;;;;17.95;100.00;95199.47;5063985;28;20209;-77
2022/09/04 07:54:22;;;;;;;35.00;20.73;;;;;;;18.05;100.00;95202.22;5060944;28;20204;-78
2022/09/04 07:57:17;;;;;;;38.00;23.10;;;;;;;18.01;100.00;95206.38;5062354;28;20213;-74
2022/09/04 08:00:01;;;;;;;33.00;21.67;;;;;;;18.17;100.00;95209.94;5063527;28;20221;-76
2022/09/04 08:02:50;;;;;;;34.80;20.80;;;;;;;18.20;100.00;95204.16;5060596;28;20841;-76
2022/09/04 08:05:23;;;;;;;33.77;21.23;;;;;;;18.19;100.00;95207.03;5061446;28;20213;-75
2022/09/04 08:08:14;;;;;;;43.93;22.30;;;;;;;18.27;100.00;95214.50;5062183;28;20208;-75
2022/09/04 08:10:55;;;;;;;36.20;21.50;;;;;;;18.37;100.00;95219.81;5062485;28;20201;-76
2022/09/04 08:13:39;;;;;;;34.10;20.50;;;;;;;18.48;100.00;95224.09;5063115;28;20678;-77
2022/09/04 08:16:09;;;;;;;29.57;20.50;;;;;;;18.47;100.00;95217.28;5062992;28;20233;-75
2022/09/04 08:19:00;;;;;;;33.22;20.20;;;;;;;18.44;100.00;95217.78;5062069;28;20229;-75
2022/09/04 08:21:29;;;;;;;32.45;20.83;;;;;;;18.51;100.00;95215.75;5056497;28;20572;-78
2022/09/04 08:24:16;;;;;;;30.10;20.15;;;;;;;18.59;100.00;95220.53;5061031;28;20236;-74
2022/09/04 08:26:56;;;;;;;31.35;20.10;;;;;;;18.66;100.00;95213.22;5062025;28;20263;-75
2022/09/04 08:29:48;;;;;;;31.60;19.27;;;;;;;18.76;100.00;95218.53;5061626;28;20212;-77
2022/09/04 08:32:32;;;;;;;29.75;18.95;;;;;;;18.87;100.00;95211.50;5060994;28;20582;-77
2022/09/04 08:35:21;;;;;;;33.22;18.33;;;;;;;18.92;100.00;95209.69;5062814;28;20197;-78
2022/09/04 08:38:13;;;;;;;28.42;18.48;;;;;;;19.03;100.00;95210.50;5062728;28;20208;-78
2022/09/04 08:41:21;;;;;;;26.17;17.65;;;;;;;19.15;100.00;95209.25;5053042;28;20209;-76
2022/09/04 08:44:35;;;;;;;23.63;14.88;;;;;;;19.31;100.00;95204.81;5049215;28;20874;-76
2022/09/04 08:47:38;;;;;;;20.40;14.00;;;;;;;19.42;100.00;95203.88;5000029;28;20218;-77
2022/09/04 08:50:22;;;;;;;16.40;11.50;;;;;;;19.63;99.54;95204.69;5058657;28;20217;-72
2022/09/04 08:53:32;;;;;;;16.23;11.52;;;;;;;19.80;97.41;95198.13;5060862;28;20219;-75
2022/09/04 08:56:17;;;;;;;16.52;10.63;;;;;;;20.01;97.73;95190.22;5060750;28;20216;-75
2022/09/04 08:59:30;;;;;;;18.42;12.75;;;;;;;20.18;96.81;95194.22;5062199;28;20208;-74
2022/09/04 09:02:38;;;;;;;19.95;12.93;;;;;;;20.34;95.38;95192.41;5061118;28;20209;-74
2022/09/04 09:05:49;;;;;;;19.05;11.85;;;;;;;20.51;92.73;95195.56;5039719;28;20225;-75
2022/09/04 09:08:32;;;;;;;13.38;9.98;;;;;;;20.63;92.21;95189.97;4957577;28;20211;-71
2022/09/04 09:11:27;;;;;;;12.93;8.73;;;;;;;20.96;96.06;95192.00;5059524;28;20229;-78
2022/09/04 09:14:20;;;;;;;9.68;7.18;;;;;;;21.24;89.89;95201.22;5060276;28;20296;-78
2022/09/04 09:17:01;;;;;;;8.27;7.10;;;;;;;21.55;87.28;95202.66;5061339;28;20233;-78
2022/09/04 09:19:44;;;;;;;11.55;7.72;;;;;;;21.72;83.74;95205.72;5061974;28;20316;-78
2022/09/04 09:22:24;;;;;;;10.82;7.43;;;;;;;21.87;81.84;95192.44;5062227;28;20205;-78
2022/09/04 09:25:19;;;;;;;10.70;6.68;;;;;;;22.04;83.50;95205.28;5061301;28;20197;-77
2022/09/04 09:28:35;;;;;;;10.38;7.57;;;;;;;22.31;82.23;95204.81;5058732;28;20232;-78
2022/09/04 09:31:43;;;;;;;9.75;7.18;;;;;;;22.64;83.59;95188.13;5058112;28;20289;-77
2022/09/04 09:34:43;;;;;;;8.73;6.72;;;;;;;23.00;82.45;95191.97;5045186;28;20653;-78
2022/09/04 09:37:33;;;;;;;8.75;6.93;;;;;;;23.27;80.90;95198.56;5062608;28;20206;-77
2022/09/04 09:40:22;;;;;;;9.82;6.93;;;;;;;23.39;77.17;95186.53;5062044;28;20201;-77
2022/09/04 09:43:25;;;;;;;7.80;6.50;;;;;;;23.70;76.90;95185.03;5062008;28;20684;-78
2022/09/04 09:46:44;;;;;;;8.00;6.50;;;;;;;23.97;74.48;95189.72;5057316;28;20231;-78
2022/09/04 09:49:41;;;;;;;6.78;5.85;;;;;;;24.38;76.87;95187.25;5060328;28;20206;-78
2022/09/04 09:52:47;;;;;;;8.90;6.63;;;;;;;24.75;74.35;95181.81;5062625;28;20205;-77
2022/09/04 09:55:45;;;;;;;8.20;6.13;;;;;;;25.05;74.28;95169.06;5062927;28;20205;-77
2022/09/04 09:58:53;;;;;;;12.02;6.72;;;;;;;25.47;71.72;95167.91;5063120;28;20668;-77
2022/09/04 10:01:38;;;;;;;8.25;7.00;;;;;;;25.67;69.91;95156.88;5066165;28;20205;-78
2022/09/04 10:04:39;;;;;;;11.30;7.55;;;;;;;25.76;67.31;95165.72;5065349;28;20698;-77
2022/09/04 10:07:57;;;;;;;10.00;6.93;;;;;;;25.23;69.16;95176.13;5063799;28;20201;-77
2022/09/04 10:10:56;;;;;;;9.50;6.30;;;;;;;25.34;71.08;95170.31;4979693;28;20351;-78
2022/09/04 10:13:47;;;;;;;9.60;7.07;;;;;;;25.76;70.43;95169.19;5063019;28;20204;-76
2022/09/04 10:17:02;;;;;;;9.77;7.38;;;;;;;25.97;69.07;95168.72;5064117;28;20233;-77
2022/09/04 10:19:53;;;;;;;9.98;7.03;;;;;;;26.32;65.91;95159.91;5061330;28;20219;-77
2022/09/04 10:22:40;;;;;;;8.48;7.13;;;;;;;26.41;65.75;95155.41;5062290;28;20193;-78
2022/09/04 10:25:45;;;;;;;7.82;6.82;;;;;;;26.72;65.66;95147.41;5066833;28;20220;-77
2022/09/04 10:28:58;;;;;;;11.18;7.47;;;;;;;27.08;63.79;95148.06;5066505;28;20221;-77
2022/09/04 10:32:00;;;;;;;8.68;6.25;;;;;;;27.31;63.81;95151.41;5041425;28;20221;-77
2022/09/04 10:34:49;;;;;;;8.43;6.47;;;;;;;27.64;62.97;95152.63;5061237;28;20189;-78
2022/09/04 10:37:35;;;;;;;6.93;6.22;;;;;;;27.95;61.82;95147.91;5063983;28;20971;-77
2022/09/04 10:43:29;;;;;;;8.93;5.70;;;;;;;28.67;61.54;95142.66;5065099;28;20745;-79
2022/09/04 10:46:02;;;;;;;5.93;4.97;;;;;;;29.11;60.49;95138.72;5063034;28;20220;-78
2022/09/04 10:49:00;;;;;;;5.82;4.97;;;;;;;29.49;58.53;95140.56;5062870;28;20214;-79
2022/09/04 10:51:57;;;;;;;6.60;5.15;;;;;;;29.86;58.27;95136.22;5062040;28;20220;-78
2022/09/04 10:55:08;;;;;;;9.00;6.47;;;;;;;29.88;56.61;95139.38;5062387;28;20197;-79
2022/09/04 10:58:04;;;;;;;9.23;6.25;;;;;;;29.85;56.57;95138.13;5063721;28;20201;-78
2022/09/04 11:00:39;;;;;;;7.15;6.20;;;;;;;29.60;56.34;95134.50;5060745;28;20224;-78
2022/09/04 11:03:45;;;;;;;14.85;7.70;;;;;;;29.52;55.50;95127.31;5062033;28;20208;-78
2022/09/04 11:06:48;;;;;;;8.88;6.90;;;;;;;29.60;55.97;95123.00;5053471;28;20586;-79
2022/09/04 11:09:38;;;;;;;7.55;6.28;;;;;;;29.58;54.40;95122.53;5062946;28;20296;-78
2022/09/04 11:12:23;;;;;;;9.57;5.85;;;;;;;29.95;54.21;95123.53;5063436;28;20205;-77
2022/09/04 11:15:18;;;;;;;5.80;5.20;;;;;;;30.35;54.34;95120.00;5063759;28;20201;-78
2022/09/04 11:18:07;;;;;;;5.47;4.97;;;;;;;30.51;53.52;95122.06;5051119;28;20213;-77
2022/09/04 11:21:10;;;;;;;6.88;5.10;;;;;;;30.29;54.35;95113.28;5062020;28;20209;-77
2022/09/04 11:24:16;;;;;;;5.70;5.10;;;;;;;30.60;52.86;95122.78;5026412;28;20275;-77
2022/09/04 11:27:27;;;;;;;6.40;5.20;;;;;;;30.63;52.82;95106.78;5064956;28;20212;-78
2022/09/04 11:30:05;;;;;;;7.50;5.53;;;;;;;30.72;52.31;95118.22;5064123;28;20205;-78
2022/09/04 11:32:59;;;;;;;6.82;4.90;;;;;;;31.01;51.19;95122.63;5061003;28;20267;-77
2022/09/04 11:36:00;;;;;;;6.07;5.00;;;;;;;30.61;50.37;95113.59;5063869;28;20205;-77
2022/09/04 11:38:56;;;;;;;5.10;4.60;;;;;;;31.09;50.53;95113.69;5055547;28;20205;-78
2022/09/04 11:41:58;;;;;;;6.18;4.85;;;;;;;31.43;49.08;95107.81;5060758;28;20204;-78
2022/09/04 11:45:15;;;;;;;5.43;4.47;;;;;;;31.76;48.11;95107.66;5063008;28;20205;-78
2022/09/04 11:48:16;;;;;;;5.97;4.80;;;;;;;32.03;46.73;95104.22;5020392;28;20202;-78
2022/09/04 11:51:18;;;;;;;10.70;4.60;;;;;;;32.40;44.50;95107.56;5020493;28;20206;-78
2022/09/04 11:54:13;;;;;;;7.25;4.40;;;;;;;32.46;43.23;95108.09;5050187;28;20204;-77
2022/09/04 11:57:13;;;;;;;4.47;4.07;;;;;;;31.91;44.42;95100.78;5062343;28;20216;-78
2022/09/04 11:59:56;;;;;;;7.43;4.40;;;;;;;31.63;45.30;95100.00;5056868;28;20295;-79
2022/09/04 12:02:47;;;;;;;6.13;4.30;;;;;;;32.03;44.35;95093.47;5064416;28;20560;-78
2022/09/04 12:05:38;;;;;;;5.53;3.70;;;;;;;32.30;44.45;95083.03;5053359;28;20775;-78
2022/09/04 12:08:26;;;;;;;6.50;4.10;;;;;;;32.21;44.78;95083.19;5061668;28;20194;-78
2022/09/04 12:11:09;;;;;;;6.55;5.10;;;;;;;32.47;44.26;95078.09;5063571;28;20665;-78
2022/09/04 12:14:04;;;;;;;5.78;4.95;;;;;;;32.57;44.41;95071.47;5061567;28;20749;-78
2022/09/04 12:16:58;;;;;;;7.07;4.30;;;;;;;32.67;43.84;95086.34;5062724;28;20658;-78
2022/09/04 12:19:55;;;;;;;5.05;4.38;;;;;;;32.11;44.90;95070.25;5062982;28;21162;-78
2022/09/04 12:22:43;;;;;;;6.50;4.18;;;;;;;31.34;45.55;95074.91;5063246;28;20201;-79
2022/09/04 12:25:40;;;;;;;5.80;4.40;;;;;;;31.03;46.77;95076.63;5064039;28;20227;-77
2022/09/04 12:28:41;;;;;;;4.57;3.72;;;;;;;30.49;46.51;95071.44;5040730;28;20210;-77
2022/09/04 12:31:50;;;;;;;4.93;4.13;;;;;;;29.66;47.91;95070.78;5056011;28;20204;-79
2022/09/04 12:34:36;;;;;;;4.47;4.07;;;;;;;29.21;50.34;95066.00;5054930;28;20205;-79
2022/09/04 12:37:27;;;;;;;6.70;4.10;;;;;;;28.96;50.50;95064.28;5062001;28;20201;-79
2022/09/04 12:40:12;;;;;;;5.68;4.47;;;;;;;28.35;51.68;95065.59;5062672;28;20198;-82
2022/09/04 12:42:47;;;;;;;4.20;3.80;;;;;;;28.02;52.81;95064.56;5061099;28;20201;-79
2022/09/04 12:45:24;;;;;;;4.38;3.33;;;;;;;27.93;53.78;95067.25;5061347;28;20228;-78